createdAt,value
2022-12-11T06:42:45.629Z,40.37
2022-12-11T06:45:15.612Z,44.04
2022-12-11T06:47:44.732Z,43.32
2022-12-11T06:50:13.636Z,43.83
2022-12-11T06:52:42.413Z,42.10
2022-12-11T06:55:14.892Z,40.54
2022-12-11T06:57:43.671Z,41.92
2022-12-11T07:00:13.372Z,40.55
2022-12-11T07:02:42.783Z,39.62
2022-12-11T07:05:21.732Z,39.71
2022-12-11T07:07:50.982Z,40.44
2022-12-11T07:10:20.953Z,43.81
2022-12-11T07:12:49.808Z,43.00
2022-12-11T07:15:18.562Z,41.19
2022-12-11T07:17:47.463Z,39.63
2022-12-11T07:20:16.543Z,45.92
2022-12-11T07:22:46.848Z,43.76
2022-12-11T07:25:16.067Z,41.62
2022-12-11T07:27:44.733Z,40.86
2022-12-11T07:30:14.318Z,41.95
2022-12-11T07:32:43.016Z,42.83
2022-12-11T07:35:12.275Z,44.41
2022-12-11T07:37:45.804Z,40.63
2022-12-11T07:40:15.145Z,40.05
2022-12-11T07:42:46.244Z,41.50
2022-12-11T07:45:16.001Z,42.25
2022-12-11T07:47:45.112Z,41.73
2022-12-11T07:50:14.193Z,42.85
2022-12-11T07:52:43.125Z,41.85
2022-12-11T07:55:14.848Z,37.99
2022-12-11T07:57:43.767Z,40.40
2022-12-11T08:00:13.003Z,40.83
2022-12-11T08:02:41.805Z,40.71
2022-12-11T08:05:14.997Z,42.88
2022-12-11T08:07:43.884Z,45.20
2022-12-11T08:10:12.865Z,42.55
2022-12-11T08:12:41.829Z,42.49
2022-12-11T08:15:11.369Z,39.09
2022-12-11T08:17:41.225Z,40.56
2022-12-11T08:20:10.473Z,39.27
2022-12-11T08:22:39.414Z,39.54
2022-12-11T08:25:09.163Z,35.77
2022-12-11T08:27:38.550Z,38.50
2022-12-11T08:30:07.942Z,37.38
2022-12-11T08:32:36.959Z,38.19
2022-12-11T08:35:05.918Z,35.30
2022-12-11T08:37:35.828Z,33.18
2022-12-11T08:40:04.893Z,34.78
2022-12-11T08:42:33.770Z,35.09
2022-12-11T08:45:02.386Z,33.16
2022-12-11T08:47:31.164Z,34.30
2022-12-11T08:49:59.917Z,35.35
2022-12-11T08:52:30.553Z,37.43
2022-12-11T08:54:59.696Z,37.48
2022-12-11T08:57:29.828Z,34.63
2022-12-11T08:59:58.817Z,34.98
2022-12-11T09:02:27.852Z,34.62
2022-12-11T09:04:56.944Z,35.65
2022-12-11T09:07:26.269Z,33.85
2022-12-11T09:09:58.385Z,34.46
2022-12-11T09:12:27.187Z,36.84
2022-12-11T09:14:56.221Z,35.64
2022-12-11T09:17:25.263Z,37.00
2022-12-11T09:19:53.981Z,39.09
2022-12-11T09:22:22.908Z,38.82
2022-12-11T09:24:51.828Z,39.22
2022-12-11T09:27:22.211Z,38.40
2022-12-11T09:29:51.849Z,37.76
2022-12-11T09:32:20.805Z,38.85
2022-12-11T09:34:52.162Z,38.46
2022-12-11T09:37:21.209Z,38.09
2022-12-11T09:39:49.919Z,38.73
2022-12-11T09:42:45.426Z,38.11
2022-12-11T09:45:17.188Z,39.64
2022-12-11T09:47:51.415Z,39.60
2022-12-11T09:50:27.917Z,44.31
2022-12-11T09:53:21.575Z,42.58
2022-12-11T09:56:05.415Z,43.26
2022-12-11T09:58:46.994Z,42.69
2022-12-11T10:01:33.220Z,44.30
2022-12-11T10:04:22.425Z,41.82
2022-12-11T10:07:22.228Z,41.94
2022-12-11T10:09:55.827Z,40.39
2022-12-11T10:12:56.549Z,42.43
2022-12-11T10:15:45.234Z,41.54
2022-12-11T10:18:23.256Z,41.63
2022-12-11T10:20:55.118Z,40.92
2022-12-11T10:23:36.537Z,41.14
2022-12-11T10:26:20.406Z,42.56
2022-12-11T10:28:49.542Z,44.17
2022-12-11T10:31:28.863Z,44.86
2022-12-11T10:34:10.527Z,44.55
2022-12-11T10:36:42.696Z,48.27
2022-12-11T10:39:17.898Z,46.96
2022-12-11T10:41:49.772Z,47.01
2022-12-11T10:44:25.186Z,48.11
2022-12-11T10:47:08.779Z,50.87
2022-12-11T10:49:39.560Z,50.48
2022-12-11T10:52:14.523Z,50.85
2022-12-11T10:54:49.996Z,51.02
2022-12-11T10:57:30.068Z,52.85
2022-12-11T11:00:00.944Z,52.43
2022-12-11T11:02:42.662Z,53.70
2022-12-11T11:05:40.998Z,55.28
2022-12-11T11:08:22.679Z,55.49
2022-12-11T11:10:54.630Z,56.12
2022-12-11T11:13:26.407Z,59.24
2022-12-11T11:16:12.825Z,58.74
2022-12-11T11:18:43.071Z,57.05
2022-12-11T11:21:20.266Z,57.09
2022-12-11T11:23:53.292Z,57.40
2022-12-11T11:26:30.760Z,56.51
2022-12-11T11:29:08.130Z,55.56
2022-12-11T11:31:37.720Z,57.89
2022-12-11T11:34:19.970Z,58.22
2022-12-11T11:36:58.708Z,59.92
2022-12-11T11:39:32.498Z,59.87
2022-12-11T11:42:28.658Z,60.66
2022-12-11T11:45:04.767Z,60.44
2022-12-11T11:47:43.136Z,60.00
2022-12-11T11:50:21.394Z,61.23
2022-12-11T11:53:01.211Z,62.56
2022-12-11T11:55:30.136Z,63.23
2022-12-11T11:58:00.199Z,65.14
2022-12-11T12:00:33.947Z,65.60
2022-12-11T12:03:24.272Z,64.94
2022-12-11T12:06:18.904Z,65.66
2022-12-11T12:09:19.470Z,64.77
2022-12-11T12:12:11.330Z,64.11
2022-12-11T12:14:53.030Z,64.25
2022-12-11T12:18:00.921Z,64.25
2022-12-11T12:20:53.215Z,65.56
2022-12-11T12:23:37.159Z,66.24
2022-12-11T12:26:12.843Z,65.75
2022-12-11T12:29:13.831Z,66.70
2022-12-11T12:31:48.987Z,67.87
2022-12-11T12:34:51.646Z,67.67
2022-12-11T12:37:47.529Z,67.09
2022-12-11T12:40:30.128Z,67.01
2022-12-11T12:43:27.503Z,66.55
2022-12-11T12:46:26.780Z,67.29
2022-12-11T12:48:58.499Z,67.19
2022-12-11T12:51:28.959Z,65.63
2022-12-11T12:54:03.217Z,66.09
2022-12-11T12:56:34.683Z,66.11
2022-12-11T12:59:03.387Z,66.26
2022-12-11T13:01:32.919Z,67.01
2022-12-11T13:04:26.200Z,67.12
2022-12-11T13:06:58.525Z,67.31
2022-12-11T13:09:29.614Z,66.84
2022-12-11T13:11:58.873Z,65.27
2022-12-11T13:15:17.463Z,65.64
2022-12-11T13:17:46.886Z,65.72
2022-12-11T13:20:27.663Z,65.69
2022-12-11T13:23:08.670Z,66.90
2022-12-11T13:25:56.820Z,66.83
2022-12-11T13:28:34.568Z,67.97
2022-12-11T13:31:31.643Z,67.88
2022-12-11T13:34:14.944Z,68.82
2022-12-11T13:36:50.536Z,68.31
2022-12-11T13:39:23.820Z,68.94
2022-12-11T13:42:04.588Z,69.68
2022-12-11T13:44:40.412Z,70.24
2022-12-11T13:47:16.918Z,70.09
2022-12-11T13:49:50.718Z,72.28
2022-12-11T13:52:23.798Z,72.73
2022-12-11T13:54:56.210Z,73.58
2022-12-11T13:57:29.504Z,75.56
2022-12-11T14:00:00.921Z,76.72
2022-12-11T14:02:41.123Z,74.32
2022-12-11T14:05:16.549Z,73.48
2022-12-11T14:07:58.885Z,72.13
2022-12-11T14:10:31.684Z,71.39
2022-12-11T14:13:03.120Z,70.54
2022-12-11T14:15:34.839Z,69.92
2022-12-11T14:18:06.988Z,69.64
2022-12-11T14:20:36.792Z,68.51
2022-12-11T14:23:10.640Z,68.36
2022-12-11T14:25:40.526Z,69.24
2022-12-11T14:28:19.474Z,68.71
2022-12-11T14:30:52.335Z,69.60
2022-12-11T14:33:27.059Z,70.27
2022-12-11T14:35:57.877Z,70.21
2022-12-11T14:38:48.144Z,71.02
2022-12-11T14:41:55.894Z,71.18
2022-12-11T14:44:28.826Z,73.26
2022-12-11T14:47:05.623Z,72.23
2022-12-11T14:50:07.159Z,70.42
2022-12-11T14:52:44.770Z,70.21
2022-12-11T14:55:28.020Z,70.71
2022-12-11T14:58:20.799Z,71.10
2022-12-11T15:01:22.343Z,70.31
2022-12-11T15:04:03.139Z,71.68
2022-12-11T15:06:35.714Z,72.32
2022-12-11T15:09:22.429Z,72.91
2022-12-11T15:11:53.462Z,73.87
2022-12-11T15:14:26.046Z,72.64
2022-12-11T15:16:59.161Z,71.58
2022-12-11T15:19:36.482Z,70.71
2022-12-11T15:22:10.651Z,69.99
2022-12-11T15:24:49.893Z,69.97
2022-12-11T15:27:41.443Z,71.02
2022-12-11T15:30:30.126Z,70.87
2022-12-11T15:33:11.809Z,71.81
2022-12-11T15:35:53.696Z,70.92
2022-12-11T15:38:35.530Z,70.64
2022-12-11T15:41:06.170Z,71.15
2022-12-11T15:43:39.886Z,70.49
2022-12-11T15:46:10.161Z,70.25
2022-12-11T15:48:39.769Z,71.18
2022-12-11T15:51:09.035Z,71.87
2022-12-11T15:53:38.738Z,73.57
2022-12-11T15:56:08.554Z,73.33
2022-12-11T15:58:38.199Z,74.21
2022-12-11T16:01:08.830Z,74.12
2022-12-11T16:03:38.743Z,74.20
2022-12-11T16:06:13.435Z,73.32
2022-12-11T16:08:43.255Z,72.55
2022-12-11T16:11:15.386Z,73.41
2022-12-11T16:13:45.527Z,72.11
2022-12-11T16:16:15.563Z,70.50
2022-12-11T16:18:45.495Z,70.92
2022-12-11T16:21:18.273Z,70.14
2022-12-11T16:23:51.117Z,71.20
2022-12-11T16:26:21.756Z,71.02
2022-12-11T16:28:52.104Z,71.33
2022-12-11T16:31:23.509Z,69.51
2022-12-11T16:33:53.629Z,69.74
2022-12-11T16:36:24.736Z,70.88
2022-12-11T16:38:56.647Z,71.96
2022-12-11T16:41:27.048Z,73.62
2022-12-11T16:43:57.162Z,75.63
2022-12-11T16:46:27.146Z,76.66
2022-12-11T16:48:57.887Z,76.86
2022-12-11T16:51:27.330Z,76.62
2022-12-11T16:53:56.823Z,76.47
2022-12-11T16:56:27.749Z,76.26
2022-12-11T16:58:57.671Z,73.72
2022-12-11T17:01:26.924Z,74.26
2022-12-11T17:03:56.780Z,72.29
2022-12-11T17:06:26.469Z,73.14
2022-12-11T17:08:56.464Z,72.86
2022-12-11T17:11:27.264Z,72.23
2022-12-11T17:13:58.839Z,71.07
2022-12-11T17:16:34.984Z,70.61
2022-12-11T17:19:08.418Z,71.86
2022-12-11T17:21:38.242Z,70.98
2022-12-11T17:24:11.549Z,69.76
2022-12-11T17:26:41.276Z,70.40
2022-12-11T17:29:13.007Z,70.07
2022-12-11T17:31:43.092Z,70.08
2022-12-11T17:34:12.576Z,69.90
2022-12-11T17:36:42.688Z,68.52
2022-12-11T17:39:13.324Z,66.99
2022-12-11T17:41:43.026Z,66.72
2022-12-11T17:44:12.605Z,66.42
2022-12-11T17:46:41.959Z,67.12
2022-12-11T17:49:11.740Z,66.87
2022-12-11T17:51:41.262Z,66.75
2022-12-11T17:54:12.340Z,66.66
2022-12-11T17:56:42.278Z,68.02
2022-12-11T17:59:11.819Z,68.04
2022-12-11T18:01:41.316Z,67.84
2022-12-11T18:04:10.571Z,66.62
2022-12-11T18:06:40.067Z,67.57
2022-12-11T18:09:10.246Z,67.69
2022-12-11T18:11:40.090Z,67.41
2022-12-11T18:14:16.673Z,68.09
2022-12-11T18:16:47.430Z,68.19
2022-12-11T18:19:18.018Z,67.50
2022-12-11T18:21:48.272Z,68.14
2022-12-11T18:24:18.400Z,68.75
2022-12-11T18:26:47.988Z,67.40
2022-12-11T18:29:17.541Z,69.19
2022-12-11T18:31:47.092Z,69.30
2022-12-11T18:34:16.499Z,69.39
2022-12-11T18:36:46.852Z,68.85
2022-12-11T18:39:17.218Z,69.09
2022-12-11T18:41:58.376Z,67.49
2022-12-11T18:44:36.261Z,67.14
2022-12-11T18:47:05.662Z,67.93
2022-12-11T18:49:35.373Z,68.66
2022-12-11T18:52:05.721Z,69.48
2022-12-11T18:54:35.170Z,69.90
2022-12-11T18:57:04.786Z,69.67
2022-12-11T18:59:34.461Z,69.86
2022-12-11T19:02:04.325Z,69.54
2022-12-11T19:04:34.407Z,70.60
2022-12-11T19:07:04.086Z,70.48
2022-12-11T19:09:37.900Z,71.14
2022-12-11T19:12:08.470Z,69.81
2022-12-11T19:14:37.860Z,69.75
2022-12-11T19:17:07.277Z,69.92
2022-12-11T19:19:36.925Z,70.83
2022-12-11T19:22:06.282Z,70.50
2022-12-11T19:24:35.653Z,71.28
2022-12-11T19:27:11.674Z,71.43
2022-12-11T19:29:42.657Z,68.91
2022-12-11T19:32:12.062Z,68.35
2022-12-11T19:34:42.314Z,68.26
2022-12-11T19:37:11.884Z,69.25
2022-12-11T19:39:41.868Z,70.52
2022-12-11T19:42:11.077Z,69.98
2022-12-11T19:44:40.263Z,70.47
2022-12-11T19:47:09.661Z,70.86
2022-12-11T19:49:38.989Z,70.87
2022-12-11T19:52:08.306Z,71.16
2022-12-11T19:54:37.848Z,70.87
2022-12-11T19:57:07.129Z,70.81
2022-12-11T19:59:36.605Z,72.04
2022-12-11T20:02:06.621Z,72.44
2022-12-11T20:04:36.291Z,72.88
2022-12-11T20:07:05.771Z,73.24
2022-12-11T20:09:35.689Z,72.79
2022-12-11T20:12:07.112Z,71.41
2022-12-11T20:14:36.605Z,72.89
2022-12-11T20:17:12.441Z,72.19
2022-12-11T20:19:43.995Z,71.06
2022-12-11T20:22:13.614Z,71.56
2022-12-11T20:24:43.570Z,70.84
2022-12-11T20:27:13.677Z,69.31
2022-12-11T20:29:43.171Z,69.69
2022-12-11T20:32:12.615Z,70.25
2022-12-11T20:34:42.251Z,70.59
2022-12-11T20:37:11.947Z,70.45
2022-12-11T20:39:41.174Z,70.40
2022-12-11T20:42:11.395Z,71.53
2022-12-11T20:44:45.710Z,71.15
2022-12-11T20:47:20.647Z,71.57
2022-12-11T20:49:51.656Z,71.15
2022-12-11T20:52:21.973Z,68.89
2022-12-11T20:54:51.915Z,70.82
2022-12-11T20:57:21.467Z,70.07
2022-12-11T20:59:51.541Z,69.91
2022-12-11T21:02:21.003Z,70.09
2022-12-11T21:04:51.595Z,70.10
2022-12-11T21:07:20.933Z,70.52
2022-12-11T21:09:50.091Z,71.07
2022-12-11T21:12:19.798Z,71.85
2022-12-11T21:14:49.103Z,71.98
2022-12-11T21:17:18.828Z,71.05
2022-12-11T21:19:48.183Z,71.34
2022-12-11T21:22:18.118Z,71.52
2022-12-11T21:24:47.384Z,71.01
2022-12-11T21:27:17.129Z,69.93
2022-12-11T21:29:46.752Z,70.52
2022-12-11T21:32:16.143Z,70.85
2022-12-11T21:34:46.227Z,70.58
2022-12-11T21:37:15.721Z,71.39
2022-12-11T21:39:45.223Z,70.68
2022-12-11T21:42:14.519Z,70.92
2022-12-11T21:47:33.975Z,70.85
2022-12-11T21:50:04.417Z,70.44
2022-12-11T21:52:33.978Z,70.96
2022-12-11T21:55:03.336Z,71.84
2022-12-11T21:57:33.031Z,70.20
2022-12-11T22:00:05.605Z,70.20
2022-12-11T22:02:41.407Z,68.30
2022-12-11T22:05:15.865Z,69.28
2022-12-11T22:07:45.748Z,69.22
2022-12-11T22:10:15.136Z,69.15
2022-12-11T22:12:44.993Z,68.99
2022-12-11T22:15:15.405Z,68.98
2022-12-11T22:17:45.036Z,68.77
2022-12-11T22:20:14.510Z,69.47
2022-12-11T22:22:43.911Z,68.67
2022-12-11T22:25:13.862Z,69.13
2022-12-11T22:27:44.011Z,69.21
2022-12-11T22:30:13.912Z,69.63
2022-12-11T22:32:44.267Z,67.36
2022-12-11T22:35:15.627Z,68.19
2022-12-11T22:37:45.375Z,68.19
2022-12-11T22:40:14.866Z,68.21
2022-12-11T22:42:45.332Z,68.97
2022-12-11T22:45:14.936Z,68.60
2022-12-11T22:47:44.679Z,67.90
2022-12-11T22:50:15.455Z,68.38
2022-12-11T22:52:46.376Z,69.14
2022-12-11T22:55:16.595Z,68.58
2022-12-11T22:57:45.929Z,69.01
2022-12-11T23:00:16.011Z,68.28
2022-12-11T23:02:46.415Z,67.81
2022-12-11T23:05:15.876Z,67.42
2022-12-11T23:07:45.266Z,67.67
2022-12-11T23:10:14.872Z,67.62
2022-12-11T23:12:45.056Z,68.43
2022-12-11T23:15:14.773Z,68.68
2022-12-11T23:17:44.263Z,69.02
2022-12-11T23:20:14.145Z,69.30
2022-12-11T23:22:43.417Z,69.52
2022-12-11T23:25:15.333Z,70.19
2022-12-11T23:27:44.898Z,69.15
2022-12-11T23:30:14.727Z,70.25
2022-12-11T23:32:44.209Z,70.83
2022-12-11T23:35:14.093Z,70.18
2022-12-11T23:37:43.986Z,70.61
2022-12-11T23:40:16.477Z,70.38
2022-12-11T23:42:46.185Z,70.98
2022-12-11T23:45:15.607Z,70.88
2022-12-11T23:47:45.104Z,70.20
2022-12-11T23:50:14.360Z,71.20
2022-12-11T23:52:43.831Z,70.73
2022-12-11T23:55:13.920Z,71.00
2022-12-11T23:57:43.533Z,70.85
